52分钟前
罗盘
风向 的 风向 120° Edmonton International Airport 2/20
风: 10 千吨, 3 beaufort
0 0 0.17778093859221 500 0.32299085377319 1.500 0.47075341907445 3.000 0.62138884920159 5.000 0.8022287624727 8.000 0.90566318494517 10.000
FEW 12.000 ft
BKN 24.000 ft
METAR CYEG 221000Z 12010KT 20SM FEW120 BKN240 M02/M03 A2987 RMK AC1CI6 AC TR SLP140

METAR定义 | 嵌入

24小时趋势

航班类别VFRLIFR
温度10 °C-2 °C
风速11 千吨0 千吨
能见度32 公里0 米

更多历史数据

下载我们的安卓应用程序

从你的主屏幕上轻松地访问你的航空天气。
只需一次付费,您就可以获得无广告的体验。

您会帮助我们保持Metar-Taf.com正常运行吗?
您的贡献有助于网站的进一步开发并支付费用。

没有更多广告

您是捐款5美元还是更多?然后,我们将永远不会再向您展示广告,这是我们永恒的感谢!
捐赠前先登录

METAR Edmonton International Airport

Edmonton International Airport是Edmonton,加拿大中的大型机场。 机场有{a,plural,=1{一条跑道} other{#跑道}}: 2/20 和 12/30

该报告是针对2021年10月22日 04:00, 当地时间上的Edmonton International Airport所做的。

机场观察

风来自东南东 (120°)方向,速度为10 千吨。

可见度为32 公里。

有几云在12.000 ft的高度 和 碎云在24.000 ft的高度。 破损或更高的上限为24.000 ft。

温度为-2 °C,阵风为-10 °C。 露点为-3 °C,相对湿度为93%。 海平面上的气压为1012 压力 (QNH)。

评论

  • 海平面压力为1014,0 压力 (SLP140)
  • AC1CI6 AC TR

白天

今天,太阳从08:15升起,在18:22降落。 这适用于Edmonton International Airport,世界夏令时可能有所不同。 当地时间与世界标准时间之间的时差为-6 小时。 夏令时目前正在进行中。

公司介绍

我们没有关于这个机场的公司信息。

体会

到Vliegles.nl去找飞行课程,跳伞和其他飞行体验。 浏览页面,了解Edmonton International Airport附近所有可用的活动。 你也可以使用搜索功能来寻找你所在地附近的特定飞行课程、跳伞或其他飞行体验。

您是否要在网站上Edmonton International Airport飞行的天气? 阅读更多   自由!